Time;durP1;ratioP1;P1;durP2;ratioP2;P2;SDS_P1;SDS_P2;PMS_P1;PMS_P2;Temp;Humidity;BMP_temperature;BMP_pressure;BME280_temperature;BME280_humidity;BME280_pressure;Samples;Min_cycle;Max_cycle;Signal;HPM_P1;HPM_P2
2022/10/23 00:02:09;;;;;;;8.57;6.23;;;12.50;99.90;;;;;;5068445;28;20175;-69
2022/10/23 00:04:35;;;;;;;7.67;5.53;;;12.40;99.90;;;;;;5073377;28;20171;-71
2022/10/23 00:07:00;;;;;;;11.53;7.53;;;12.50;99.90;;;;;;5070099;28;20217;-71
2022/10/23 00:09:26;;;;;;;9.67;6.60;;;12.50;99.90;;;;;;5055590;28;20649;-72
2022/10/23 00:11:52;;;;;;;10.60;7.03;;;12.50;99.90;;;;;;5064949;28;20185;-71
2022/10/23 00:14:21;;;;;;;10.87;6.87;;;12.50;99.90;;;;;;5069040;28;20182;-68
2022/10/23 00:16:47;;;;;;;10.83;7.57;;;12.60;99.90;;;;;;5067145;28;20194;-70
2022/10/23 00:19:13;;;;;;;11.63;7.87;;;12.60;99.90;;;;;;5075307;28;20545;-68
2022/10/23 00:21:39;;;;;;;12.60;7.00;;;12.60;99.90;;;;;;5074677;28;20174;-69
2022/10/23 00:24:05;;;;;;;9.53;6.67;;;12.60;99.90;;;;;;5074060;28;20158;-71
2022/10/23 00:26:31;;;;;;;11.93;7.97;;;12.60;99.90;;;;;;5074308;28;20502;-71
2022/10/23 00:28:57;;;;;;;11.83;6.77;;;12.60;99.90;;;;;;5059910;28;20528;-68
2022/10/23 00:31:24;;;;;;;9.23;7.57;;;12.60;99.90;;;;;;5054203;28;20237;-68
2022/10/23 00:33:50;;;;;;;11.07;7.77;;;12.60;99.90;;;;;;5053757;28;20171;-71
2022/10/23 00:36:17;;;;;;;8.97;7.60;;;12.60;99.90;;;;;;5060269;28;20939;-68
2022/10/23 00:38:43;;;;;;;13.20;7.93;;;12.60;99.90;;;;;;5074801;28;20721;-71
2022/10/23 00:41:17;;;;;;;9.63;6.10;;;12.50;99.90;;;;;;5074265;28;20574;-70
2022/10/23 00:44:06;;;;;;;10.93;7.07;;;12.50;99.90;;;;;;5072343;28;20442;-71
2022/10/23 00:46:34;;;;;;;9.63;6.17;;;12.50;99.90;;;;;;5074533;28;20414;-71
2022/10/23 00:49:00;;;;;;;12.97;7.00;;;12.40;99.90;;;;;;5074716;28;20378;-71
2022/10/23 00:51:30;;;;;;;15.23;7.10;;;12.40;99.90;;;;;;5074339;28;20469;-69
2022/10/23 00:53:59;;;;;;;17.10;6.87;;;12.40;99.90;;;;;;5072501;28;20416;-68
2022/10/23 00:56:25;;;;;;;13.87;7.17;;;12.30;99.90;;;;;;5073143;28;21594;-71
2022/10/23 00:58:51;;;;;;;12.43;8.10;;;12.30;99.90;;;;;;5073492;28;20423;-68
2022/10/23 01:01:19;;;;;;;10.00;7.10;;;12.30;99.90;;;;;;5072816;28;20452;-67
2022/10/23 01:03:45;;;;;;;12.83;5.70;;;12.30;99.90;;;;;;5073344;28;20185;-72
2022/10/23 01:06:14;;;;;;;9.60;6.67;;;12.30;99.90;;;;;;5072543;28;20432;-72
2022/10/23 01:09:16;;;;;;;17.57;5.80;;;12.30;99.90;;;;;;5074359;28;20403;-68
2022/10/23 01:11:56;;;;;;;8.60;5.97;;;12.30;99.90;;;;;;5049795;28;20495;-71
2022/10/23 01:14:36;;;;;;;11.43;6.40;;;12.20;99.90;;;;;;5053032;28;21010;-68
2022/10/23 01:17:04;;;;;;;11.73;6.43;;;12.20;99.90;;;;;;5068960;28;20432;-68
2022/10/23 01:19:51;;;;;;;13.60;6.40;;;12.20;99.90;;;;;;5054575;28;20466;-70
2022/10/23 01:23:04;;;;;;;12.57;6.47;;;12.20;99.90;;;;;;5073948;28;20371;-69
2022/10/23 01:25:45;;;;;;;10.93;6.73;;;12.10;99.90;;;;;;5056347;28;20539;-68
2022/10/23 01:28:20;;;;;;;8.00;6.00;;;12.10;99.90;;;;;;5053973;28;20380;-71
2022/10/23 01:30:47;;;;;;;6.73;6.00;;;12.00;99.90;;;;;;5066895;28;20756;-68
2022/10/23 01:33:23;;;;;;;10.00;6.40;;;12.00;99.90;;;;;;5073421;28;20923;-71
2022/10/23 01:35:56;;;;;;;13.20;6.50;;;12.00;99.90;;;;;;5072774;28;20526;-71
2022/10/23 01:38:40;;;;;;;9.80;6.83;;;12.00;99.90;;;;;;5073705;28;20396;-68
2022/10/23 01:41:19;;;;;;;11.40;6.07;;;12.00;99.90;;;;;;5057032;28;20459;-68
2022/10/23 01:43:54;;;;;;;9.33;5.73;;;12.00;99.90;;;;;;5060474;28;20433;-68
2022/10/23 01:46:22;;;;;;;12.03;7.67;;;11.90;99.90;;;;;;5073176;28;20428;-70
2022/10/23 01:48:52;;;;;;;7.40;6.20;;;11.90;99.90;;;;;;5073583;28;20549;-68
2022/10/23 01:51:21;;;;;;;10.90;6.33;;;11.90;99.90;;;;;;5073321;28;20470;-68
2022/10/23 01:53:50;;;;;;;10.23;6.33;;;11.90;99.90;;;;;;5071269;28;20488;-71
2022/10/23 01:56:24;;;;;;;13.17;6.70;;;11.90;99.90;;;;;;5071845;28;20399;-72
2022/10/23 01:58:54;;;;;;;11.50;6.27;;;11.90;99.90;;;;;;5073368;28;20894;-71
2022/10/23 02:01:23;;;;;;;9.77;6.67;;;11.80;99.90;;;;;;5073188;28;20854;-70
2022/10/23 02:03:50;;;;;;;11.20;5.73;;;11.80;99.90;;;;;;5072446;28;20448;-69
2022/10/23 02:06:16;;;;;;;7.77;6.30;;;11.80;99.90;;;;;;5073029;28;20440;-69
2022/10/23 02:08:42;;;;;;;12.40;7.23;;;11.70;99.90;;;;;;5071947;28;20958;-69
2022/10/23 02:11:14;;;;;;;13.70;6.23;;;11.70;99.90;;;;;;5073223;28;20391;-70
2022/10/23 02:14:00;;;;;;;7.70;6.40;;;11.60;99.90;;;;;;5072113;28;20220;-70
2022/10/23 02:16:51;;;;;;;7.50;6.37;;;11.70;99.90;;;;;;5070011;28;20415;-71
2022/10/23 02:19:49;;;;;;;8.77;5.80;;;11.70;99.90;;;;;;5073047;28;20786;-70
2022/10/23 02:22:22;;;;;;;8.87;6.23;;;11.60;99.90;;;;;;5068191;28;20783;-70
2022/10/23 02:25:06;;;;;;;11.30;6.60;;;11.60;99.90;;;;;;5057670;28;20533;-70
2022/10/23 02:27:43;;;;;;;8.67;6.20;;;11.60;99.90;;;;;;5073154;28;20405;-70
2022/10/23 02:30:13;;;;;;;9.97;6.93;;;11.60;99.90;;;;;;5068264;28;20927;-69
2022/10/23 02:32:45;;;;;;;8.37;6.20;;;11.50;99.90;;;;;;5053263;28;20752;-71
2022/10/23 02:35:11;;;;;;;7.17;6.50;;;11.50;99.90;;;;;;5059510;28;20781;-70
2022/10/23 02:37:36;;;;;;;8.73;5.40;;;11.50;99.90;;;;;;5068797;28;20417;-70
2022/10/23 02:40:03;;;;;;;8.63;6.57;;;11.50;99.90;;;;;;5062444;28;20460;-71
2022/10/23 02:42:31;;;;;;;6.73;5.37;;;11.50;99.90;;;;;;5073191;28;20212;-69
2022/10/23 02:45:09;;;;;;;9.73;7.20;;;11.50;99.90;;;;;;5071491;28;20391;-71
2022/10/23 02:48:05;;;;;;;17.70;7.03;;;11.50;99.90;;;;;;5072818;28;20871;-71
2022/10/23 02:50:44;;;;;;;17.30;7.17;;;11.50;99.90;;;;;;5071779;28;20424;-69
2022/10/23 02:53:19;;;;;;;10.53;7.80;;;11.40;99.90;;;;;;5072676;28;20477;-69
2022/10/23 02:56:21;;;;;;;8.30;7.37;;;11.40;99.90;;;;;;5072588;28;20463;-70
2022/10/23 02:58:57;;;;;;;12.27;7.10;;;11.40;99.90;;;;;;5054306;28;20461;-69
2022/10/23 03:01:28;;;;;;;11.63;6.40;;;11.40;99.90;;;;;;5070779;28;20449;-71
2022/10/23 03:04:00;;;;;;;11.47;6.87;;;11.30;99.90;;;;;;5075426;28;20947;-70
2022/10/23 03:06:26;;;;;;;12.33;7.23;;;11.30;99.90;;;;;;5076175;28;20759;-70
2022/10/23 03:08:59;;;;;;;15.57;8.80;;;11.20;99.90;;;;;;5073962;28;20523;-70
2022/10/23 03:11:24;;;;;;;11.87;8.13;;;11.20;99.90;;;;;;5076312;28;20269;-70
2022/10/23 03:13:50;;;;;;;21.33;9.67;;;11.20;99.90;;;;;;5070876;28;20988;-69
2022/10/23 03:16:16;;;;;;;16.83;9.73;;;11.30;99.90;;;;;;5055465;28;20439;-70
2022/10/23 03:18:42;;;;;;;17.33;10.10;;;11.30;99.90;;;;;;5071417;28;20416;-70
2022/10/23 03:21:07;;;;;;;20.53;10.47;;;11.40;99.90;;;;;;5066983;28;20193;-70
2022/10/23 03:23:33;;;;;;;18.27;10.40;;;11.40;99.90;;;;;;5067857;28;20178;-71
2022/10/23 03:25:59;;;;;;;14.20;10.80;;;11.40;99.90;;;;;;5075448;28;20610;-69
2022/10/23 03:28:25;;;;;;;16.50;9.93;;;11.40;99.90;;;;;;5076015;28;20178;-69
2022/10/23 03:30:51;;;;;;;15.83;9.23;;;11.50;99.90;;;;;;5074887;28;20174;-69
2022/10/23 03:33:17;;;;;;;18.80;9.77;;;11.50;99.90;;;;;;5075720;28;20178;-70
2022/10/23 03:35:42;;;;;;;16.43;9.50;;;11.40;99.90;;;;;;5067568;28;20931;-70
2022/10/23 03:38:08;;;;;;;14.80;8.90;;;11.40;99.90;;;;;;5067347;28;20415;-70
2022/10/23 03:40:34;;;;;;;32.27;10.57;;;11.40;99.90;;;;;;5076023;28;20207;-71
2022/10/23 03:42:59;;;;;;;22.73;9.30;;;11.50;99.90;;;;;;5075359;28;20169;-71
2022/10/23 03:45:25;;;;;;;19.00;9.43;;;11.50;99.90;;;;;;5073948;28;20200;-70
2022/10/23 03:47:51;;;;;;;12.93;9.10;;;11.50;99.90;;;;;;5075843;28;20198;-70
2022/10/23 03:50:18;;;;;;;13.87;9.57;;;11.50;99.90;;;;;;5074103;28;20669;-71
2022/10/23 03:52:44;;;;;;;18.50;9.77;;;11.50;99.90;;;;;;5075394;28;20571;-69
2022/10/23 03:55:10;;;;;;;13.00;9.10;;;11.50;99.90;;;;;;5074766;28;20762;-70
2022/10/23 03:57:36;;;;;;;19.50;10.00;;;11.40;99.90;;;;;;5075364;28;20445;-70
2022/10/23 04:00:04;;;;;;;17.73;8.90;;;11.40;99.90;;;;;;5075584;28;20450;-69
2022/10/23 04:02:30;;;;;;;13.27;8.13;;;11.40;99.90;;;;;;5074842;28;20399;-69
2022/10/23 04:04:55;;;;;;;15.70;9.07;;;11.40;99.90;;;;;;5056833;28;20483;-69
2022/10/23 04:07:21;;;;;;;16.27;9.80;;;11.30;99.90;;;;;;5059544;28;20694;-71
2022/10/23 04:09:47;;;;;;;15.57;9.80;;;11.30;99.90;;;;;;5074404;28;20182;-69
2022/10/23 04:12:13;;;;;;;19.33;7.93;;;11.30;99.90;;;;;;5074170;28;20257;-70
2022/10/23 04:14:38;;;;;;;20.37;9.30;;;11.30;99.90;;;;;;5074581;28;20619;-70
2022/10/23 04:17:04;;;;;;;14.20;8.70;;;11.30;99.90;;;;;;5074915;28;20186;-70
2022/10/23 04:19:30;;;;;;;14.60;9.37;;;11.20;99.90;;;;;;5073674;28;20198;-71
2022/10/23 04:21:56;;;;;;;15.60;9.33;;;11.20;99.90;;;;;;5074907;28;20523;-70
2022/10/23 04:24:25;;;;;;;16.80;8.57;;;11.20;99.90;;;;;;5073825;28;20206;-69
2022/10/23 04:26:51;;;;;;;17.20;8.23;;;11.20;99.90;;;;;;5075434;28;20780;-69
2022/10/23 04:29:17;;;;;;;12.63;8.70;;;11.10;99.90;;;;;;5074816;28;20490;-69
2022/10/23 04:31:43;;;;;;;10.43;8.73;;;11.10;99.90;;;;;;5072705;28;20429;-69
2022/10/23 04:34:09;;;;;;;22.50;8.57;;;11.20;99.90;;;;;;5073760;28;20740;-70
2022/10/23 04:36:34;;;;;;;13.93;8.67;;;11.20;99.90;;;;;;5073919;28;20190;-69
2022/10/23 04:39:00;;;;;;;11.43;8.33;;;11.20;99.90;;;;;;5074245;28;20658;-70
2022/10/23 04:41:26;;;;;;;14.40;8.63;;;11.20;99.90;;;;;;5073679;28;20170;-69
2022/10/23 04:43:52;;;;;;;11.67;8.23;;;11.20;99.90;;;;;;5072253;28;20308;-69
2022/10/23 04:46:17;;;;;;;16.03;9.20;;;11.10;99.90;;;;;;5069029;28;20248;-69
2022/10/23 04:48:43;;;;;;;15.93;8.37;;;11.10;99.90;;;;;;5065480;28;20170;-71
2022/10/23 04:51:09;;;;;;;12.83;9.70;;;11.20;99.90;;;;;;5073346;28;20170;-69
2022/10/23 04:53:35;;;;;;;10.63;8.57;;;11.20;99.90;;;;;;5069535;28;20182;-71
2022/10/23 04:56:01;;;;;;;17.83;9.23;;;11.10;99.90;;;;;;5053907;28;20475;-70
2022/10/23 04:58:28;;;;;;;14.13;9.13;;;11.20;99.90;;;;;;5063691;28;20259;-69
2022/10/23 05:00:54;;;;;;;13.93;8.83;;;11.20;99.90;;;;;;5068941;28;20436;-69
2022/10/23 05:03:21;;;;;;;13.60;9.00;;;11.20;99.90;;;;;;5078980;28;20447;-71
2022/10/23 05:05:47;;;;;;;14.13;10.27;;;11.20;99.90;;;;;;5073404;28;20395;-70
2022/10/23 05:08:13;;;;;;;16.47;8.83;;;11.20;99.90;;;;;;5072657;28;20432;-69
2022/10/23 05:10:40;;;;;;;19.83;9.63;;;11.20;99.90;;;;;;5073198;28;20201;-69
2022/10/23 05:13:06;;;;;;;12.77;9.17;;;11.20;99.90;;;;;;5073994;28;20880;-69
2022/10/23 05:15:31;;;;;;;20.03;9.83;;;11.20;99.90;;;;;;5066916;28;20464;-69
2022/10/23 05:18:20;;;;;;;15.07;9.87;;;11.20;99.90;;;;;;5060643;28;20425;-71
2022/10/23 05:20:49;;;;;;;12.80;9.00;;;11.10;99.90;;;;;;5070223;28;20559;-69
2022/10/23 05:23:18;;;;;;;15.67;9.77;;;11.10;99.90;;;;;;5069493;28;20384;-69
2022/10/23 05:25:44;;;;;;;17.60;8.40;;;11.10;99.90;;;;;;5053359;28;20392;-70
2022/10/23 05:28:10;;;;;;;16.90;9.33;;;11.10;99.90;;;;;;5062593;28;20770;-69
2022/10/23 05:30:36;;;;;;;14.30;8.73;;;11.10;99.90;;;;;;5073930;28;20257;-69
2022/10/23 05:33:02;;;;;;;21.00;10.70;;;11.10;99.90;;;;;;5072273;28;20719;-70
2022/10/23 05:35:29;;;;;;;16.83;9.10;;;11.10;99.90;;;;;;5072595;28;20405;-70
2022/10/23 05:37:57;;;;;;;12.10;8.43;;;11.20;99.90;;;;;;5073469;28;20874;-70
2022/10/23 05:40:23;;;;;;;15.40;8.83;;;11.10;99.90;;;;;;5056944;28;20435;-71
2022/10/23 05:42:49;;;;;;;14.10;8.30;;;11.10;99.90;;;;;;5065703;28;20410;-76
2022/10/23 05:45:15;;;;;;;15.13;9.30;;;11.10;99.90;;;;;;5072729;28;20222;-77
2022/10/23 05:47:44;;;;;;;18.40;7.77;;;11.10;99.90;;;;;;5072254;28;20721;-76
2022/10/23 05:50:09;;;;;;;21.43;8.10;;;11.10;99.90;;;;;;5073240;28;20454;-79
2022/10/23 05:52:35;;;;;;;18.80;9.20;;;11.00;99.90;;;;;;5073194;28;20387;-70
2022/10/23 05:55:01;;;;;;;19.93;8.73;;;11.00;99.90;;;;;;5072482;28;20174;-72
2022/10/23 05:57:26;;;;;;;17.40;8.70;;;11.00;99.90;;;;;;5072091;28;20214;-70
2022/10/23 05:59:52;;;;;;;27.47;7.67;;;11.10;99.90;;;;;;5073332;28;20438;-70
2022/10/23 06:02:18;;;;;;;14.93;9.03;;;11.00;99.90;;;;;;5073043;28;20166;-70
2022/10/23 06:04:43;;;;;;;12.47;7.50;;;10.90;99.90;;;;;;5070692;28;20210;-69
2022/10/23 06:07:09;;;;;;;14.83;8.70;;;10.90;99.90;;;;;;5072876;28;20194;-68
2022/10/23 06:09:35;;;;;;;13.33;8.57;;;10.90;99.90;;;;;;5071903;28;20177;-68
2022/10/23 06:12:01;;;;;;;19.23;8.03;;;10.90;99.90;;;;;;5071916;28;20181;-70
2022/10/23 06:14:27;;;;;;;18.17;7.43;;;10.90;99.90;;;;;;5072305;28;20181;-68
2022/10/23 06:16:53;;;;;;;16.13;9.70;;;10.80;99.90;;;;;;5068359;28;20412;-69
2022/10/23 06:19:18;;;;;;;13.87;8.10;;;10.90;99.90;;;;;;5053503;28;20765;-69
2022/10/23 06:21:44;;;;;;;15.33;8.80;;;10.90;99.90;;;;;;5060557;28;20170;-69
2022/10/23 06:24:10;;;;;;;14.03;8.30;;;10.90;99.90;;;;;;5072245;28;20531;-71
2022/10/23 06:26:35;;;;;;;16.87;6.97;;;10.80;99.90;;;;;;5062803;28;20193;-68
2022/10/23 06:29:01;;;;;;;9.70;8.10;;;10.80;99.90;;;;;;5071402;28;20562;-72
2022/10/23 06:31:27;;;;;;;15.70;7.97;;;10.80;99.90;;;;;;5059993;28;20205;-68
2022/10/23 06:33:56;;;;;;;13.63;7.47;;;10.80;99.90;;;;;;5058907;28;20163;-75
2022/10/23 06:36:23;;;;;;;11.90;8.17;;;10.90;99.90;;;;;;5092540;28;20629;-69
2022/10/23 06:38:48;;;;;;;14.50;7.30;;;10.90;99.90;;;;;;5060687;28;20436;-69
2022/10/23 06:41:21;;;;;;;25.53;8.30;;;10.90;99.90;;;;;;5077369;28;20968;-68
2022/10/23 06:43:48;;;;;;;9.43;7.00;;;11.00;99.90;;;;;;5075829;28;20177;-75
2022/10/23 06:46:14;;;;;;;10.67;8.83;;;11.00;99.90;;;;;;5075816;28;20409;-70
2022/10/23 06:48:43;;;;;;;14.50;6.97;;;11.00;99.90;;;;;;5076960;28;20367;-69
2022/10/23 06:51:11;;;;;;;18.63;8.23;;;11.00;99.90;;;;;;5071595;28;20187;-68
2022/10/23 06:53:37;;;;;;;16.17;7.50;;;11.00;99.90;;;;;;5089874;28;20955;-78
2022/10/23 06:56:04;;;;;;;12.47;7.40;;;11.10;99.90;;;;;;5075371;28;20420;-70
2022/10/23 06:58:31;;;;;;;18.60;6.50;;;11.00;99.90;;;;;;5076488;28;20383;-70
2022/10/23 07:01:03;;;;;;;16.60;7.97;;;11.10;99.90;;;;;;5076317;28;20472;-69
2022/10/23 07:03:29;;;;;;;16.43;7.67;;;11.10;99.90;;;;;;5075043;28;20939;-70
2022/10/23 07:05:55;;;;;;;19.83;7.70;;;11.10;99.90;;;;;;5074743;28;20429;-69
2022/10/23 07:08:20;;;;;;;11.97;7.70;;;11.10;99.90;;;;;;5076557;28;20162;-69
2022/10/23 07:10:47;;;;;;;13.57;8.37;;;11.10;99.90;;;;;;5076426;28;20196;-69
2022/10/23 07:13:13;;;;;;;10.53;8.07;;;11.10;99.90;;;;;;5076049;28;20167;-70
2022/10/23 07:15:39;;;;;;;12.90;8.00;;;11.20;99.90;;;;;;5074375;28;20424;-69
2022/10/23 07:18:05;;;;;;;13.50;8.13;;;11.30;99.90;;;;;;5075387;28;20174;-70
2022/10/23 07:20:31;;;;;;;11.53;8.80;;;11.40;99.90;;;;;;5070876;28;20667;-70
2022/10/23 07:22:57;;;;;;;14.77;7.63;;;11.40;99.90;;;;;;5056439;28;20943;-69
2022/10/23 07:25:24;;;;;;;14.03;7.30;;;11.30;99.90;;;;;;5055196;28;20403;-70
2022/10/23 07:27:50;;;;;;;9.77;7.70;;;11.30;99.90;;;;;;5056326;28;20415;-69
2022/10/23 07:30:16;;;;;;;11.20;8.30;;;11.40;99.90;;;;;;5055843;28;20412;-70
2022/10/23 07:32:42;;;;;;;13.03;8.07;;;11.50;99.90;;;;;;5056121;28;20198;-70
2022/10/23 07:35:09;;;;;;;20.80;8.60;;;11.50;99.90;;;;;;5070238;28;20487;-69
2022/10/23 07:37:35;;;;;;;15.40;8.73;;;11.60;99.90;;;;;;5055822;28;20401;-70
2022/10/23 07:40:01;;;;;;;22.80;8.67;;;11.60;99.90;;;;;;5055843;28;20452;-69
2022/10/23 07:42:26;;;;;;;18.53;8.20;;;11.60;99.90;;;;;;5054892;28;20170;-70
2022/10/23 07:44:52;;;;;;;12.97;7.77;;;11.70;99.90;;;;;;5055092;28;20372;-70
2022/10/23 07:47:17;;;;;;;9.70;6.53;;;11.60;99.90;;;;;;5055547;28;20182;-71
2022/10/23 07:49:43;;;;;;;15.37;7.67;;;11.70;99.90;;;;;;5055252;28;20186;-69
2022/10/23 07:52:09;;;;;;;15.77;8.70;;;11.70;99.90;;;;;;5055829;28;20174;-69
2022/10/23 07:54:34;;;;;;;12.63;7.40;;;11.70;99.90;;;;;;5053577;28;20170;-70
2022/10/23 07:57:00;;;;;;;13.97;7.60;;;11.70;99.90;;;;;;5055519;28;20197;-72
2022/10/23 07:59:26;;;;;;;14.43;7.07;;;11.70;99.90;;;;;;5055515;28;20671;-70
2022/10/23 08:01:55;;;;;;;11.80;7.70;;;11.80;99.90;;;;;;5062036;28;20220;-69
2022/10/23 08:04:21;;;;;;;10.50;7.60;;;11.80;99.90;;;;;;5074621;28;20634;-68
2022/10/23 08:06:46;;;;;;;10.60;7.00;;;11.90;99.90;;;;;;5075291;28;20515;-70
2022/10/23 08:09:12;;;;;;;11.50;8.30;;;12.00;99.90;;;;;;5075337;28;20461;-71
2022/10/23 08:11:38;;;;;;;14.37;6.60;;;12.00;99.90;;;;;;5075350;28;20379;-69
2022/10/23 08:14:05;;;;;;;15.93;7.33;;;12.10;99.90;;;;;;5074849;28;20627;-70
2022/10/23 08:16:36;;;;;;;10.77;7.87;;;12.00;99.90;;;;;;5074239;28;20284;-69
2022/10/23 08:19:03;;;;;;;14.27;7.33;;;12.00;99.90;;;;;;5075227;28;20404;-70
2022/10/23 08:21:29;;;;;;;13.20;8.03;;;12.00;99.90;;;;;;5075024;28;20462;-71
2022/10/23 08:23:56;;;;;;;13.93;7.10;;;12.00;99.90;;;;;;5073118;28;20508;-70
2022/10/23 08:26:23;;;;;;;15.07;7.77;;;12.10;99.90;;;;;;5073284;28;20213;-72
2022/10/23 08:28:50;;;;;;;14.90;7.53;;;12.20;99.90;;;;;;5075286;28;20368;-70
2022/10/23 08:31:18;;;;;;;10.87;8.50;;;12.20;99.90;;;;;;5072929;28;20792;-70
2022/10/23 08:33:44;;;;;;;12.57;7.70;;;12.20;99.90;;;;;;5074026;28;20405;-71
2022/10/23 08:36:21;;;;;;;16.90;8.63;;;12.20;99.90;;;;;;5073702;28;20403;-70
2022/10/23 08:38:47;;;;;;;9.00;7.87;;;12.20;99.90;;;;;;5074983;28;20378;-70
2022/10/23 08:41:29;;;;;;;11.40;8.70;;;12.30;99.90;;;;;;5074824;28;20444;-70
2022/10/23 08:44:27;;;;;;;16.20;8.03;;;12.40;99.90;;;;;;5069662;28;20639;-70
2022/10/23 08:47:01;;;;;;;14.00;9.20;;;12.50;99.90;;;;;;5054227;28;20432;-70
2022/10/23 08:49:40;;;;;;;24.33;8.90;;;12.40;99.90;;;;;;5054669;28;20371;-69
2022/10/23 08:52:34;;;;;;;12.03;8.00;;;12.40;99.90;;;;;;5054642;28;20447;-69
2022/10/23 08:55:02;;;;;;;13.37;7.97;;;12.40;99.90;;;;;;5053390;28;20393;-69
2022/10/23 08:57:34;;;;;;;16.70;7.60;;;12.50;99.90;;;;;;5058224;28;20511;-71
2022/10/23 09:00:05;;;;;;;8.00;7.03;;;12.40;99.90;;;;;;5074219;28;20489;-69
2022/10/23 09:02:42;;;;;;;9.87;8.30;;;12.40;99.90;;;;;;5074089;28;20820;-70
2022/10/23 09:05:34;;;;;;;12.67;8.07;;;12.50;99.90;;;;;;5072055;28;20423;-71
2022/10/23 09:08:31;;;;;;;10.40;8.50;;;12.50;99.90;;;;;;5038199;28;20452;-69
2022/10/23 09:11:02;;;;;;;11.97;8.97;;;12.60;99.90;;;;;;5054182;28;20433;-70
2022/10/23 09:13:54;;;;;;;13.20;9.90;;;12.70;99.90;;;;;;5069428;28;20496;-71
2022/10/23 09:16:36;;;;;;;15.30;8.87;;;12.80;99.90;;;;;;5069430;28;20429;-70
2022/10/23 09:19:15;;;;;;;14.03;9.43;;;13.00;99.90;;;;;;5053604;28;20409;-70
2022/10/23 09:21:43;;;;;;;18.60;10.23;;;13.10;99.90;;;;;;5054048;28;20412;-70
2022/10/23 09:24:17;;;;;;;16.07;9.87;;;13.20;99.90;;;;;;5058696;28;20529;-70
2022/10/23 09:26:48;;;;;;;22.67;13.43;;;13.40;99.90;;;;;;5072117;28;20431;-70
2022/10/23 09:29:27;;;;;;;19.47;11.50;;;13.50;99.90;;;;;;5073459;28;20443;-70
2022/10/23 09:31:55;;;;;;;20.20;12.10;;;13.60;99.90;;;;;;5073646;28;20411;-71
2022/10/23 09:34:27;;;;;;;21.13;12.73;;;13.70;99.90;;;;;;5072811;28;20401;-69
2022/10/23 09:37:00;;;;;;;15.50;11.40;;;13.80;99.90;;;;;;5053205;28;20523;-71
2022/10/23 09:39:31;;;;;;;23.77;13.03;;;13.80;99.90;;;;;;5053833;28;20432;-70
2022/10/23 09:41:58;;;;;;;21.57;12.50;;;13.70;99.90;;;;;;5053851;28;20397;-71
2022/10/23 09:44:30;;;;;;;22.57;13.33;;;13.70;99.90;;;;;;5052809;28;20398;-70
2022/10/23 09:47:06;;;;;;;20.63;13.40;;;13.70;99.90;;;;;;5056286;28;20402;-78
2022/10/23 09:49:33;;;;;;;21.53;13.00;;;13.80;99.90;;;;;;5072346;28;20408;-77
2022/10/23 09:52:20;;;;;;;19.97;12.53;;;13.90;99.90;;;;;;5071461;28;20471;-78
2022/10/23 09:55:01;;;;;;;18.37;12.53;;;13.90;99.90;;;;;;5072337;28;20396;-70
2022/10/23 09:57:35;;;;;;;22.90;12.47;;;14.00;99.90;;;;;;5072524;28;20402;-70
2022/10/23 10:00:14;;;;;;;19.37;12.87;;;14.00;99.90;;;;;;5073422;28;20450;-70
2022/10/23 10:02:57;;;;;;;20.53;12.13;;;14.10;99.90;;;;;;5073308;28;20468;-70
2022/10/23 10:05:30;;;;;;;16.10;11.77;;;14.20;99.90;;;;;;5072006;28;20421;-69
2022/10/23 10:08:20;;;;;;;19.00;13.07;;;14.50;99.90;;;;;;5073188;28;20412;-69
2022/10/23 10:11:09;;;;;;;23.80;13.80;;;14.50;99.90;;;;;;5073253;28;20778;-71
2022/10/23 10:13:38;;;;;;;23.30;14.50;;;14.50;99.90;;;;;;5071810;28;20428;-72
2022/10/23 10:16:04;;;;;;;20.70;13.03;;;14.50;99.90;;;;;;5073203;28;20439;-72
2022/10/23 10:18:57;;;;;;;21.87;13.37;;;14.70;99.90;;;;;;5061608;28;20941;-71
2022/10/23 10:21:32;;;;;;;21.77;13.73;;;14.70;99.90;;;;;;5068226;28;20202;-70
2022/10/23 10:24:05;;;;;;;22.80;13.67;;;14.60;99.90;;;;;;5051320;28;20481;-70
2022/10/23 10:26:50;;;;;;;22.50;14.93;;;14.80;99.90;;;;;;5068596;28;20474;-70
2022/10/23 10:29:53;;;;;;;17.23;11.97;;;14.90;99.90;;;;;;5051493;28;20424;-70
2022/10/23 10:32:37;;;;;;;22.10;13.83;;;15.10;99.90;;;;;;5058538;28;20432;-71
2022/10/23 10:35:26;;;;;;;28.63;14.40;;;15.10;99.90;;;;;;5071086;28;20467;-71
2022/10/23 10:38:03;;;;;;;20.47;13.20;;;15.20;99.90;;;;;;5073109;28;20400;-71
2022/10/23 10:40:37;;;;;;;25.00;15.60;;;15.20;99.90;;;;;;5072897;28;20451;-72
2022/10/23 10:43:11;;;;;;;23.80;14.83;;;15.30;99.90;;;;;;5071714;28;20503;-71
2022/10/23 10:45:40;;;;;;;25.27;13.20;;;15.40;99.90;;;;;;5070674;28;20451;-70
2022/10/23 10:48:09;;;;;;;21.47;12.67;;;15.40;99.90;;;;;;5071258;28;20396;-72
2022/10/23 10:50:56;;;;;;;24.10;12.90;;;15.50;99.90;;;;;;5071654;28;20408;-71
2022/10/23 10:53:56;;;;;;;18.87;11.70;;;15.50;92.50;;;;;;5072951;28;20740;-70
2022/10/23 10:56:26;;;;;;;21.23;12.40;;;15.50;93.00;;;;;;5072692;28;20425;-73
2022/10/23 10:58:57;;;;;;;21.80;13.40;;;15.50;86.50;;;;;;5071842;28;20423;-71
2022/10/23 11:01:29;;;;;;;21.53;14.47;;;15.50;83.90;;;;;;5072891;28;20884;-71
2022/10/23 11:04:10;;;;;;;26.70;15.00;;;15.50;82.10;;;;;;5070739;28;20543;-70
2022/10/23 11:06:37;;;;;;;27.63;15.00;;;15.40;64.90;;;;;;5071296;28;20448;-72
2022/10/23 11:09:19;;;;;;;27.13;14.30;;;15.40;57.80;;;;;;5072719;28;20408;-72
2022/10/23 11:11:46;;;;;;;25.07;14.10;;;15.40;51.20;;;;;;5072851;28;20409;-70
2022/10/23 11:14:17;;;;;;;27.07;15.40;;;15.40;54.60;;;;;;5068480;28;20439;-71
2022/10/23 11:16:48;;;;;;;22.67;14.03;;;15.50;39.70;;;;;;5071209;28;20432;-71
2022/10/23 11:19:20;;;;;;;26.23;12.77;;;15.50;37.60;;;;;;5076267;28;20404;-72
2022/10/23 11:22:04;;;;;;;26.27;13.53;;;15.50;36.90;;;;;;5076365;28;20403;-71
2022/10/23 11:24:38;;;;;;;33.03;15.67;;;15.50;27.40;;;;;;5073779;28;20407;-71
2022/10/23 11:27:20;;;;;;;24.57;13.10;;;15.50;32.50;;;;;;5074863;28;20945;-71
2022/10/23 11:30:11;;;;;;;25.13;15.00;;;15.60;19.20;;;;;;5075285;28;20415;-71
2022/10/23 11:33:00;;;;;;;22.60;14.80;;;15.50;23.80;;;;;;5076223;28;20499;-70
2022/10/23 11:36:05;;;;;;;20.77;13.60;;;15.60;10.00;;;;;;5075080;28;20424;-71
2022/10/23 11:38:36;;;;;;;19.33;12.20;;;15.50;1.00;;;;;;5076040;28;20405;-71
2022/10/23 11:41:20;;;;;;;23.07;13.23;;;15.50;1.00;;;;;;5061862;28;20526;-73
2022/10/23 11:44:04;;;;;;;25.87;15.90;;;15.50;1.00;;;;;;5054974;28;20431;-71
2022/10/23 11:46:35;;;;;;;20.30;12.10;;;15.50;1.00;;;;;;5055762;28;20416;-71
2022/10/23 11:49:04;;;;;;;18.13;12.60;;;15.40;1.00;;;;;;5055733;28;20400;-71
2022/10/23 11:51:37;;;;;;;23.10;13.40;;;15.50;1.00;;;;;;5055832;28;20928;-70
2022/10/23 11:54:09;;;;;;;21.37;13.57;;;15.50;1.00;;;;;;5066496;28;20538;-71
2022/10/23 11:56:35;;;;;;;18.63;12.47;;;15.60;1.00;;;;;;5074641;28;20464;-71
2022/10/23 11:59:26;;;;;;;21.37;13.20;;;15.70;1.00;;;;;;5074663;28;20424;-71
2022/10/23 12:01:53;;;;;;;18.97;12.80;;;15.80;1.00;;;;;;5075371;28;20431;-71
2022/10/23 12:04:39;;;;;;;19.10;13.10;;;15.90;1.00;;;;;;5069593;28;20534;-71
2022/10/23 12:07:16;;;;;;;22.83;13.97;;;15.90;1.00;;;;;;5068200;28;20448;-72
2022/10/23 12:09:57;;;;;;;22.07;13.27;;;16.00;1.00;;;;;;5075616;28;20400;-71
2022/10/23 12:12:33;;;;;;;25.83;12.77;;;16.10;1.00;;;;;;5075522;28;20411;-71
2022/10/23 12:15:14;;;;;;;19.23;12.70;;;16.10;1.00;;;;;;5074370;28;20403;-71
2022/10/23 12:17:44;;;;;;;18.13;10.60;;;16.10;1.00;;;;;;5072477;28;20428;-73
2022/10/23 12:20:10;;;;;;;17.60;11.20;;;16.20;1.00;;;;;;5084402;28;20557;-73
2022/10/23 12:22:44;;;;;;;13.50;10.67;;;16.30;1.00;;;;;;5075185;28;20500;-71
2022/10/23 12:25:22;;;;;;;18.17;10.80;;;16.40;1.00;;;;;;5074117;28;20634;-72
2022/10/23 12:28:23;;;;;;;13.97;10.90;;;16.30;1.00;;;;;;5074685;28;20822;-71
2022/10/23 12:31:07;;;;;;;21.87;11.03;;;16.40;1.00;;;;;;5072100;28;20435;-71
2022/10/23 12:33:36;;;;;;;18.53;10.07;;;16.50;1.00;;;;;;5073338;28;20431;-73
2022/10/23 12:36:21;;;;;;;13.73;9.00;;;16.60;1.00;;;;;;5069701;28;20957;-71
2022/10/23 12:38:48;;;;;;;15.67;11.00;;;16.70;1.00;;;;;;5055029;28;20400;-72
2022/10/23 12:41:37;;;;;;;11.30;9.83;;;16.90;1.00;;;;;;5054931;28;20444;-71
2022/10/23 12:44:09;;;;;;;13.67;8.80;;;17.10;1.00;;;;;;5069426;28;20417;-73
2022/10/23 12:46:50;;;;;;;12.77;9.23;;;17.20;1.00;;;;;;5054792;28;20448;-71
2022/10/23 12:49:18;;;;;;;13.00;9.07;;;17.20;1.00;;;;;;5069602;28;20431;-73
2022/10/23 12:51:44;;;;;;;11.00;8.47;;;17.20;1.00;;;;;;5054479;28;20406;-72
2022/10/23 12:54:18;;;;;;;12.90;8.70;;;17.20;1.00;;;;;;5053371;28;20503;-71
2022/10/23 12:56:44;;;;;;;11.83;8.17;;;17.30;1.00;;;;;;5054418;28;20186;-72
2022/10/23 12:59:20;;;;;;;10.40;8.10;;;17.40;1.00;;;;;;5054558;28;20394;-71